Bridlington Mrsc, United Kingdom
Current Conditions -  °F | °C
As of 5:50 AM on Friday 31 Oct 2014 (Local Time) from EGXV Reporting Station
Haze Haze  
Wind Chill: 57°   Ceiling: 20000
Heat Index: 57°   Visibility: 2.4mi
Dew Point: 57°   Wind: 8mph
Humidity: 100%   Direction: 190°S
Pressure: 29.94"   Gusts: NA
Location:  54.1°N, 0.17°W
Report Text: EGXV 310450Z AUTO 19007KT 3900 BR FEW034/// BKN200/// 14/14 Q1014
Loading
Personal Weather Stations






























Interactive Weather Map
Tropical Storm Tracking
New forecast layout! Learn more

10-Day Weather Forecast

Advertisements
Track Severe Weather on mobile